Time;durP1;ratioP1;P1;durP2;ratioP2;P2;SDS_P1;SDS_P2;PMS_P1;PMS_P2;Temp;Humidity;BMP_temperature;BMP_pressure;BME280_temperature;BME280_humidity;BME280_pressure;Samples;Min_cycle;Max_cycle;Signal;HPM_P1;HPM_P2
2022/12/26 00:01:52;;;;;;;56.10;17.95;;;8.10;99.90;;;;;;4990209;28;20049;-89
2022/12/26 00:04:18;;;;;;;54.35;18.70;;;8.10;99.90;;;;;;4990241;28;20412;-83
2022/12/26 00:06:44;;;;;;;45.33;17.63;;;8.10;99.90;;;;;;4990115;28;20053;-89
2022/12/26 00:09:10;;;;;;;49.80;16.90;;;8.10;99.90;;;;;;4990305;28;20050;-86
2022/12/26 00:11:36;;;;;;;49.30;18.40;;;8.30;99.90;;;;;;4989939;28;20068;-88
2022/12/26 00:14:08;;;;;;;59.08;17.38;;;8.10;99.90;;;;;;4989528;28;20042;-77
2022/12/26 00:16:34;;;;;;;48.78;17.27;;;8.10;99.90;;;;;;4988541;28;20058;-87
2022/12/26 00:19:00;;;;;;;48.33;16.27;;;8.10;99.90;;;;;;4990169;28;20050;-85
2022/12/26 00:21:27;;;;;;;47.63;16.98;;;8.10;99.90;;;;;;4990092;28;20049;-77
2022/12/26 00:23:55;;;;;;;46.70;17.23;;;8.00;99.90;;;;;;4989558;28;20042;-86
2022/12/26 00:26:22;;;;;;;47.53;16.58;;;8.10;99.90;;;;;;4989832;28;20042;-76
2022/12/26 00:28:48;;;;;;;51.78;17.38;;;8.30;99.90;;;;;;5004739;28;20396;-89
2022/12/26 00:31:18;;;;;;;56.67;18.45;;;8.50;99.90;;;;;;4989669;28;20054;-87
2022/12/26 00:33:44;;;;;;;53.08;18.42;;;8.30;99.90;;;;;;4989664;28;20058;-85
2022/12/26 00:36:13;;;;;;;54.97;17.55;;;8.10;99.90;;;;;;4988614;28;20489;-90
2022/12/26 00:38:40;;;;;;;52.90;17.33;;;8.10;99.90;;;;;;4989904;28;20054;-83
2022/12/26 00:41:06;;;;;;;54.08;17.92;;;8.10;99.90;;;;;;4989874;28;20047;-82
2022/12/26 00:43:32;;;;;;;59.10;17.73;;;8.00;99.90;;;;;;4989264;28;20035;-78
2022/12/26 00:45:59;;;;;;;61.05;19.15;;;8.10;99.90;;;;;;4989081;28;20542;-78
2022/12/26 00:48:24;;;;;;;59.92;17.73;;;8.10;99.90;;;;;;4988309;28;20064;-80
2022/12/26 00:50:51;;;;;;;69.43;19.00;;;8.10;99.90;;;;;;4989503;28;20155;-77
2022/12/26 00:53:16;;;;;;;57.05;18.40;;;8.00;99.90;;;;;;4989067;28;20286;-78
2022/12/26 00:55:42;;;;;;;61.50;18.98;;;8.10;99.90;;;;;;4988509;28;20085;-77
2022/12/26 00:58:08;;;;;;;57.67;19.30;;;8.00;99.90;;;;;;4989252;28;20050;-78
2022/12/26 01:00:34;;;;;;;67.00;18.92;;;8.00;99.90;;;;;;4988974;28;20054;-89
2022/12/26 01:03:00;;;;;;;58.83;19.20;;;8.00;99.90;;;;;;4989157;28;20046;-82
2022/12/26 01:05:26;;;;;;;55.95;18.23;;;8.00;99.90;;;;;;4989452;28;20050;-87
2022/12/26 01:07:51;;;;;;;56.50;19.13;;;8.10;99.90;;;;;;5020506;28;20058;-79
2022/12/26 01:10:17;;;;;;;55.58;18.90;;;8.00;99.90;;;;;;4989190;28;20047;-85
2022/12/26 01:12:43;;;;;;;59.35;18.92;;;8.00;99.90;;;;;;4989452;28;20113;-78
2022/12/26 01:15:08;;;;;;;62.40;19.30;;;8.10;99.90;;;;;;4987750;28;20513;-78
2022/12/26 01:17:34;;;;;;;55.20;18.02;;;8.00;99.90;;;;;;4989190;28;20577;-88
2022/12/26 01:20:01;;;;;;;52.92;18.75;;;8.00;99.90;;;;;;4988727;28;20058;-89
2022/12/26 01:22:26;;;;;;;65.25;18.88;;;8.50;99.90;;;;;;4988799;28;20043;-86
2022/12/26 01:24:54;;;;;;;67.38;20.08;;;8.10;99.90;;;;;;4988705;28;20040;-78
2022/12/26 01:27:19;;;;;;;56.75;18.75;;;8.10;99.90;;;;;;4989003;28;20460;-78
2022/12/26 01:29:45;;;;;;;65.65;20.45;;;8.10;99.90;;;;;;4988336;28;20107;-79
2022/12/26 01:32:11;;;;;;;69.07;21.55;;;8.10;99.90;;;;;;4988225;28;20062;-77
2022/12/26 01:34:36;;;;;;;58.03;19.65;;;8.10;99.90;;;;;;4988811;28;20047;-79
2022/12/26 01:37:02;;;;;;;76.22;20.65;;;8.10;99.90;;;;;;4988865;28;20121;-76
2022/12/26 01:39:28;;;;;;;71.53;21.23;;;8.10;99.90;;;;;;4988632;28;20049;-77
2022/12/26 01:41:54;;;;;;;63.53;21.15;;;8.10;99.90;;;;;;5033761;28;20052;-76
2022/12/26 01:44:59;;;;;;;63.75;20.77;;;8.10;99.90;;;;;;5019072;28;20392;-83
2022/12/26 01:47:40;;;;;;;58.78;19.20;;;8.10;99.90;;;;;;4988335;28;20050;-77
2022/12/26 01:50:34;;;;;;;60.95;19.35;;;8.10;99.90;;;;;;4988351;28;20088;-77
2022/12/26 01:53:09;;;;;;;57.45;17.90;;;8.10;99.90;;;;;;4966128;28;20055;-77
2022/12/26 01:55:36;;;;;;;62.33;18.38;;;8.80;99.90;;;;;;4966355;28;20062;-89
2022/12/26 01:58:11;;;;;;;64.38;19.15;;;8.60;99.90;;;;;;4950294;28;20561;-80
2022/12/26 02:00:37;;;;;;;57.72;16.35;;;8.10;99.90;;;;;;4966036;28;20051;-81
2022/12/26 02:05:49;;;;;;;50.28;17.00;;;8.10;99.90;;;;;;4966516;28;20063;-90
2022/12/26 02:08:20;;;;;;;54.33;16.58;;;8.10;99.90;;;;;;4967568;28;20201;-84
2022/12/26 02:10:50;;;;;;;58.03;17.60;;;8.10;99.90;;;;;;5034975;28;20526;-80
2022/12/26 02:13:17;;;;;;;55.90;17.55;;;8.10;99.90;;;;;;4966052;28;20100;-76
2022/12/26 02:15:44;;;;;;;52.25;15.90;;;8.10;99.90;;;;;;4966229;28;20060;-86
2022/12/26 02:18:09;;;;;;;52.72;16.67;;;8.10;99.90;;;;;;4966123;28;20564;-83
2022/12/26 02:21:14;;;;;;;52.60;17.10;;;8.10;99.90;;;;;;4966661;28;20047;-88
2022/12/26 02:23:47;;;;;;;49.78;17.27;;;8.20;99.90;;;;;;4966262;28;20054;-88
2022/12/26 02:26:56;;;;;;;52.35;17.50;;;8.10;99.90;;;;;;4950166;28;20090;-88
2022/12/26 02:29:52;;;;;;;46.60;15.48;;;8.20;99.90;;;;;;4971293;28;20073;-75
2022/12/26 02:32:41;;;;;;;47.45;15.82;;;8.10;99.90;;;;;;4988046;28;20144;-76
2022/12/26 02:35:26;;;;;;;39.00;15.13;;;8.20;99.90;;;;;;4988564;28;20097;-76
2022/12/26 02:38:22;;;;;;;41.57;15.23;;;8.20;99.90;;;;;;4988323;28;20046;-75
2022/12/26 02:41:41;;;;;;;38.60;15.48;;;8.20;99.90;;;;;;4988222;28;20538;-76
2022/12/26 02:47:23;;;;;;;39.20;15.38;;;8.20;99.90;;;;;;4949632;28;20066;-80
2022/12/26 03:13:22;;;;;;;45.08;21.27;;;8.30;99.90;;;;;;4964612;28;20050;-86
2022/12/26 03:19:06;;;;;;;50.60;23.20;;;8.40;99.90;;;;;;4929258;28;20086;-86
2022/12/26 03:21:40;;;;;;;49.00;22.30;;;8.30;99.90;;;;;;4927243;29;20155;-84
2022/12/26 03:24:09;;;;;;;54.80;24.83;;;9.00;99.90;;;;;;4927724;29;20060;-76
2022/12/26 03:26:40;;;;;;;52.65;23.80;;;8.40;99.90;;;;;;4930019;29;20056;-82
2022/12/26 03:32:16;;;;;;;55.05;24.98;;;8.40;99.90;;;;;;4930237;29;20056;-82
2022/12/26 03:34:43;;;;;;;54.40;23.13;;;8.60;99.90;;;;;;4927828;29;20066;-77
2022/12/26 03:37:35;;;;;;;57.00;23.52;;;8.40;99.90;;;;;;4914473;29;20101;-77
2022/12/26 04:19:42;;;;;;;52.47;22.83;;;8.60;99.90;;;;;;5010142;28;20054;-80
2022/12/26 04:46:05;;;;;;;47.80;22.35;;;8.60;99.90;;;;;;4934981;29;20059;-77
2022/12/26 04:51:15;;;;;;;46.20;22.38;;;8.50;99.90;;;;;;4952096;29;20051;-88
2022/12/26 04:53:41;;;;;;;46.22;23.77;;;8.50;99.90;;;;;;4961510;28;20068;-81
2022/12/26 04:56:09;;;;;;;44.53;23.85;;;8.50;99.90;;;;;;5007189;28;20050;-75
2022/12/26 04:58:35;;;;;;;48.17;24.20;;;8.50;99.90;;;;;;4989938;28;20058;-83
2022/12/26 05:09:35;;;;;;;40.60;22.23;;;8.40;99.90;;;;;;4988308;28;20050;-76
2022/12/26 05:12:06;;;;;;;41.70;22.75;;;8.40;99.90;;;;;;4989736;28;20061;-81
2022/12/26 05:14:34;;;;;;;37.03;20.50;;;8.40;99.90;;;;;;4988443;28;20501;-76
2022/12/26 05:30:51;;;;;;;38.83;21.25;;;8.40;99.90;;;;;;4990024;28;20508;-75
2022/12/26 05:36:01;;;;;;;36.70;21.47;;;8.40;99.90;;;;;;4988779;28;20047;-77
2022/12/26 05:38:26;;;;;;;37.67;21.55;;;8.40;99.90;;;;;;4989593;28;20297;-85
2022/12/26 05:40:52;;;;;;;38.35;21.75;;;8.90;99.90;;;;;;4989375;28;20080;-76
2022/12/26 05:43:18;;;;;;;35.70;21.75;;;8.40;99.90;;;;;;4989572;28;20072;-88
2022/12/26 05:45:44;;;;;;;35.35;22.08;;;8.40;99.90;;;;;;4989029;28;20088;-75
2022/12/26 05:48:10;;;;;;;33.05;20.70;;;8.40;99.90;;;;;;4987094;28;20907;-75
2022/12/26 05:50:35;;;;;;;35.92;21.63;;;8.40;99.90;;;;;;4990106;28;20093;-87
2022/12/26 05:53:02;;;;;;;36.75;20.45;;;8.30;99.90;;;;;;4989819;28;20038;-81
2022/12/26 05:55:28;;;;;;;34.33;21.48;;;8.30;99.90;;;;;;4989330;28;20099;-78
2022/12/26 05:57:54;;;;;;;39.33;22.17;;;8.60;99.90;;;;;;4989228;28;20043;-77
2022/12/26 06:00:20;;;;;;;36.42;21.48;;;8.30;99.90;;;;;;4989078;28;20056;-75
2022/12/26 06:02:46;;;;;;;37.65;22.35;;;8.50;99.90;;;;;;4988999;28;20447;-80
2022/12/26 06:05:11;;;;;;;37.90;22.13;;;8.30;99.90;;;;;;4988829;28;20042;-79
2022/12/26 06:07:37;;;;;;;32.22;21.55;;;8.30;99.90;;;;;;4989062;28;20054;-78
2022/12/26 06:10:05;;;;;;;36.00;21.85;;;8.30;99.90;;;;;;4988453;28;20057;-79
2022/12/26 06:12:31;;;;;;;31.30;19.60;;;8.40;99.90;;;;;;4988413;28;20072;-81
2022/12/26 06:14:56;;;;;;;38.75;21.38;;;8.30;99.90;;;;;;4988800;28;20043;-83
2022/12/26 06:17:22;;;;;;;28.13;19.80;;;8.60;99.90;;;;;;4988873;28;20050;-82
2022/12/26 06:19:47;;;;;;;32.53;21.13;;;8.40;99.90;;;;;;4988604;28;20084;-75
2022/12/26 06:22:13;;;;;;;32.83;21.20;;;8.90;99.90;;;;;;4988609;28;20409;-77
2022/12/26 06:24:39;;;;;;;29.38;20.15;;;8.40;99.90;;;;;;4988662;28;20038;-81
2022/12/26 06:27:04;;;;;;;29.50;18.80;;;8.60;99.90;;;;;;4987372;28;20088;-76
2022/12/26 06:29:30;;;;;;;31.38;19.55;;;8.40;99.90;;;;;;4988834;28;20070;-74
2022/12/26 06:31:56;;;;;;;30.15;19.30;;;8.40;99.90;;;;;;4988233;28;20497;-91
2022/12/26 06:34:21;;;;;;;28.13;18.75;;;8.40;99.90;;;;;;4988473;28;20402;-76
2022/12/26 06:36:47;;;;;;;31.65;18.88;;;8.40;99.90;;;;;;4989057;28;20068;-76
2022/12/26 06:39:12;;;;;;;35.38;18.92;;;8.40;99.90;;;;;;4988688;28;20049;-83
2022/12/26 06:41:38;;;;;;;32.70;17.95;;;8.40;99.90;;;;;;4988005;28;20083;-80
2022/12/26 06:44:04;;;;;;;27.55;18.33;;;8.40;99.90;;;;;;4988441;28;20045;-76
2022/12/26 06:46:30;;;;;;;31.30;17.65;;;8.40;99.90;;;;;;4988572;28;20413;-75
2022/12/26 06:48:55;;;;;;;28.63;17.88;;;8.40;99.90;;;;;;4988355;28;20400;-81
2022/12/26 06:51:23;;;;;;;33.78;17.58;;;8.40;99.90;;;;;;4988332;28;20049;-80
2022/12/26 06:53:51;;;;;;;34.10;16.15;;;8.40;99.90;;;;;;4988673;28;20038;-77
2022/12/26 06:56:27;;;;;;;22.23;14.73;;;8.40;99.90;;;;;;4988269;28;20061;-76
2022/12/26 06:58:53;;;;;;;24.13;15.18;;;8.50;99.90;;;;;;4988328;28;20038;-78
2022/12/26 07:01:20;;;;;;;28.40;16.08;;;8.80;99.90;;;;;;4992089;28;20494;-78
2022/12/26 07:03:46;;;;;;;24.42;15.38;;;8.90;99.90;;;;;;4991518;28;20125;-88
2022/12/26 07:06:18;;;;;;;23.30;15.82;;;8.50;99.90;;;;;;4991871;28;20085;-77
2022/12/26 07:08:43;;;;;;;23.40;14.88;;;8.50;99.90;;;;;;5023450;28;20046;-82
2022/12/26 07:11:25;;;;;;;25.58;15.60;;;8.50;99.90;;;;;;4991687;28;20519;-81
2022/12/26 07:13:53;;;;;;;21.15;14.27;;;8.50;99.90;;;;;;4991422;28;20362;-76
2022/12/26 07:16:18;;;;;;;25.60;14.52;;;8.50;99.90;;;;;;4991219;28;20485;-89
2022/12/26 07:18:44;;;;;;;20.13;12.15;;;8.50;99.90;;;;;;5023170;28;20140;-82
2022/12/26 07:21:12;;;;;;;23.98;14.30;;;8.60;99.90;;;;;;4990577;28;20049;-77
2022/12/26 07:23:37;;;;;;;21.48;13.07;;;8.60;99.90;;;;;;4991583;28;20042;-77
2022/12/26 07:26:04;;;;;;;25.40;12.23;;;8.60;99.90;;;;;;5023309;28;20050;-79
2022/12/26 07:28:30;;;;;;;27.02;12.20;;;8.80;99.90;;;;;;4989438;28;20130;-79
2022/12/26 07:30:59;;;;;;;22.63;11.80;;;8.60;99.90;;;;;;4990863;28;20149;-88
2022/12/26 07:33:25;;;;;;;18.67;12.02;;;8.80;99.90;;;;;;4990889;28;20167;-89
2022/12/26 07:35:51;;;;;;;16.23;10.95;;;8.50;99.90;;;;;;4990007;28;20057;-91
2022/12/26 07:38:17;;;;;;;20.05;10.50;;;8.50;99.90;;;;;;4991475;28;20047;-79
2022/12/26 07:40:42;;;;;;;22.65;10.25;;;9.10;99.90;;;;;;4989588;28;20046;-77
2022/12/26 07:43:08;;;;;;;20.35;10.05;;;8.50;99.90;;;;;;4989909;28;20408;-83
2022/12/26 07:45:33;;;;;;;19.95;10.43;;;8.40;99.90;;;;;;4990694;28;20061;-78
2022/12/26 07:47:59;;;;;;;13.65;9.30;;;8.40;99.90;;;;;;4991030;28;20074;-76
2022/12/26 07:50:26;;;;;;;19.63;10.48;;;8.40;99.90;;;;;;4991191;28;20111;-88
2022/12/26 07:52:52;;;;;;;18.70;9.32;;;9.00;99.90;;;;;;4991220;28;20057;-85
2022/12/26 07:55:18;;;;;;;17.25;9.60;;;8.50;99.90;;;;;;4990792;28;20060;-76
2022/12/26 07:57:48;;;;;;;14.43;9.05;;;8.50;99.90;;;;;;4991352;28;20556;-76
2022/12/26 08:00:14;;;;;;;19.67;9.25;;;8.50;99.90;;;;;;4990529;28;20572;-82
2022/12/26 08:02:39;;;;;;;16.27;9.00;;;8.50;99.90;;;;;;4990385;28;20113;-83
2022/12/26 08:05:05;;;;;;;11.27;7.53;;;8.70;99.90;;;;;;4991043;28;20285;-76
2022/12/26 08:07:30;;;;;;;17.85;8.60;;;8.50;99.90;;;;;;4991003;28;20046;-79
2022/12/26 08:09:56;;;;;;;15.07;8.13;;;8.60;99.90;;;;;;4990551;28;20061;-79
2022/12/26 08:12:23;;;;;;;14.18;7.68;;;8.80;99.90;;;;;;4989945;28;20471;-75
2022/12/26 08:14:49;;;;;;;18.30;7.47;;;8.50;99.90;;;;;;4990437;28;20050;-76
2022/12/26 08:17:15;;;;;;;14.32;7.35;;;8.50;99.90;;;;;;4990709;28;20099;-80
2022/12/26 08:19:41;;;;;;;18.20;7.93;;;8.60;99.90;;;;;;4990781;28;20042;-86
2022/12/26 08:22:06;;;;;;;15.93;6.65;;;8.70;99.90;;;;;;4989549;28;20141;-87
2022/12/26 08:24:32;;;;;;;15.88;7.40;;;8.60;99.90;;;;;;4990723;28;20074;-75
2022/12/26 08:26:58;;;;;;;14.43;7.13;;;8.60;99.90;;;;;;4989447;28;20054;-79
2022/12/26 08:29:23;;;;;;;13.98;5.55;;;8.70;99.90;;;;;;4990372;28;20042;-76
2022/12/26 08:31:49;;;;;;;13.82;7.03;;;8.60;99.90;;;;;;4988235;28;20069;-75
2022/12/26 08:34:15;;;;;;;15.65;6.10;;;8.60;99.90;;;;;;4988505;28;20081;-75
2022/12/26 08:36:40;;;;;;;13.70;6.63;;;8.60;99.90;;;;;;4988842;28;20125;-81
2022/12/26 08:39:06;;;;;;;10.10;5.95;;;8.80;99.90;;;;;;4988907;28;20244;-79
2022/12/26 08:41:32;;;;;;;12.52;6.60;;;8.70;99.90;;;;;;4988838;28;20078;-80
2022/12/26 08:43:57;;;;;;;13.77;6.10;;;8.70;99.90;;;;;;4990150;28;20054;-86
2022/12/26 08:46:23;;;;;;;12.85;6.53;;;9.10;99.90;;;;;;4989654;28;20068;-75
2022/12/26 08:48:50;;;;;;;13.32;6.82;;;8.70;99.90;;;;;;4989508;28;20121;-75
2022/12/26 08:51:22;;;;;;;13.60;6.13;;;8.70;99.90;;;;;;4990144;28;20050;-88
2022/12/26 08:53:48;;;;;;;19.85;7.72;;;8.70;99.90;;;;;;4989175;28;20619;-80
2022/12/26 08:56:22;;;;;;;14.13;6.43;;;9.00;99.90;;;;;;4989979;28;20043;-76
2022/12/26 08:58:48;;;;;;;14.25;7.35;;;8.70;99.90;;;;;;4987778;28;20042;-78
2022/12/26 09:01:16;;;;;;;12.57;7.88;;;8.70;99.90;;;;;;4989215;28;20442;-74
2022/12/26 09:03:43;;;;;;;18.25;7.38;;;9.00;99.90;;;;;;4984950;28;20421;-74
2022/12/26 09:06:10;;;;;;;17.60;7.82;;;8.70;99.90;;;;;;4987355;28;20512;-77
2022/12/26 09:08:37;;;;;;;11.30;7.60;;;9.40;99.90;;;;;;4989173;28;20050;-79
2022/12/26 09:11:25;;;;;;;15.77;7.10;;;8.70;99.90;;;;;;4989785;28;20808;-76
2022/12/26 09:13:52;;;;;;;13.63;6.93;;;8.70;99.90;;;;;;4989372;28;20122;-84
2022/12/26 09:16:24;;;;;;;17.50;6.97;;;8.80;99.90;;;;;;4989805;28;20045;-78
2022/12/26 09:18:55;;;;;;;18.60;6.45;;;8.70;99.90;;;;;;4989049;28;20465;-82
2022/12/26 09:21:22;;;;;;;15.90;6.20;;;8.70;99.90;;;;;;4989670;28;20050;-92
2022/12/26 09:23:48;;;;;;;10.20;5.30;;;8.70;99.90;;;;;;4989265;28;20137;-74
2022/12/26 09:26:16;;;;;;;10.90;4.75;;;8.80;99.90;;;;;;4989342;28;20181;-77
2022/12/26 09:28:42;;;;;;;11.70;5.57;;;8.80;99.90;;;;;;4987835;28;20055;-79
2022/12/26 09:31:11;;;;;;;9.82;3.60;;;8.80;99.90;;;;;;4988611;28;20626;-77
2022/12/26 09:33:37;;;;;;;11.48;2.83;;;8.80;99.90;;;;;;4987499;28;20062;-76
2022/12/26 09:36:09;;;;;;;7.88;2.83;;;9.20;99.90;;;;;;4989121;28;20050;-78
2022/12/26 09:38:35;;;;;;;8.93;3.33;;;8.80;99.90;;;;;;4989089;28;20096;-78
2022/12/26 09:41:21;;;;;;;11.77;3.20;;;9.30;99.90;;;;;;4988789;28;20523;-83
2022/12/26 09:44:04;;;;;;;11.38;3.38;;;8.80;99.90;;;;;;4987296;28;20060;-78
2022/12/26 09:47:00;;;;;;;10.55;2.40;;;8.70;99.90;;;;;;4988906;28;20042;-79
2022/12/26 09:49:33;;;;;;;19.55;1.88;;;8.50;99.90;;;;;;4988615;28;20078;-84
2022/12/26 09:52:05;;;;;;;8.43;2.08;;;8.40;99.90;;;;;;4988838;28;20038;-76
2022/12/26 09:54:39;;;;;;;21.90;2.08;;;8.00;99.90;;;;;;4988438;28;20516;-80
2022/12/26 09:57:18;;;;;;;8.30;2.05;;;8.20;99.90;;;;;;4988278;28;20079;-81
2022/12/26 09:59:59;;;;;;;13.98;1.80;;;7.60;99.90;;;;;;4988252;28;20046;-74
2022/12/26 10:02:25;;;;;;;10.95;1.95;;;7.50;99.90;;;;;;4988077;28;20085;-75
2022/12/26 10:04:53;;;;;;;13.63;1.95;;;8.00;99.90;;;;;;4988164;28;20089;-79
2022/12/26 10:07:30;;;;;;;17.42;3.20;;;7.40;99.90;;;;;;4988403;28;20081;-77
2022/12/26 10:10:10;;;;;;;12.80;1.90;;;7.30;99.90;;;;;;4986641;28;20100;-76
2022/12/26 10:12:55;;;;;;;14.65;2.45;;;7.30;99.90;;;;;;4987642;28;20046;-75
2022/12/26 10:15:32;;;;;;;17.27;2.17;;;7.30;99.90;;;;;;4988529;28;20047;-78
2022/12/26 10:18:23;;;;;;;11.77;1.75;;;7.30;99.90;;;;;;4988507;28;20490;-90
2022/12/26 10:21:33;;;;;;;11.00;1.52;;;7.30;99.90;;;;;;4987572;28;20053;-78
2022/12/26 10:24:15;;;;;;;8.30;1.20;;;7.20;99.90;;;;;;4988390;28;20050;-75
2022/12/26 10:26:44;;;;;;;17.33;2.65;;;7.30;99.90;;;;;;4986895;28;20531;-78
2022/12/26 10:29:24;;;;;;;9.52;1.48;;;7.20;99.90;;;;;;4988547;28;20053;-76
2022/12/26 10:32:04;;;;;;;9.18;1.65;;;7.70;99.90;;;;;;4985624;28;20517;-76
2022/12/26 10:34:33;;;;;;;10.50;2.28;;;7.20;99.90;;;;;;4987372;28;20065;-75
2022/12/26 10:37:17;;;;;;;9.20;1.30;;;7.30;99.90;;;;;;4986517;28;20090;-79
2022/12/26 10:40:15;;;;;;;13.60;1.70;;;7.10;99.90;;;;;;4988261;28;20047;-77
2022/12/26 10:42:44;;;;;;;13.77;2.65;;;7.10;99.90;;;;;;4968930;28;20695;-81
2022/12/26 10:45:38;;;;;;;9.27;1.33;;;7.10;99.90;;;;;;4968659;28;20047;-76
2022/12/26 10:48:04;;;;;;;12.80;1.70;;;7.00;99.90;;;;;;5014181;28;20052;-78
2022/12/26 10:50:33;;;;;;;13.68;1.65;;;7.00;99.90;;;;;;4987531;28;20039;-83
2022/12/26 10:53:02;;;;;;;13.23;1.48;;;7.70;99.90;;;;;;4988260;28;20046;-78
2022/12/26 10:55:31;;;;;;;16.05;1.90;;;6.90;99.90;;;;;;4987686;28;20490;-73
2022/12/26 10:58:00;;;;;;;12.95;1.35;;;6.90;99.90;;;;;;4987952;28;20072;-80
2022/12/26 11:00:27;;;;;;;17.77;1.80;;;7.00;99.90;;;;;;4987784;28;20041;-76
2022/12/26 11:03:14;;;;;;;15.32;2.28;;;6.80;99.90;;;;;;4987544;28;20046;-74
2022/12/26 11:05:43;;;;;;;14.73;1.60;;;6.80;99.90;;;;;;4986432;28;20050;-80
2022/12/26 11:08:50;;;;;;;9.50;1.40;;;6.80;99.90;;;;;;4987631;28;20401;-76
2022/12/26 11:11:45;;;;;;;12.65;1.92;;;6.80;99.90;;;;;;4986374;28;20744;-87
2022/12/26 11:14:36;;;;;;;12.90;1.35;;;6.80;99.90;;;;;;4987247;28;20129;-75
2022/12/26 11:17:12;;;;;;;15.13;1.50;;;6.80;99.90;;;;;;4986085;28;20088;-86
2022/12/26 11:19:41;;;;;;;10.57;1.40;;;6.70;99.90;;;;;;4987426;28;20050;-75
2022/12/26 11:22:22;;;;;;;15.07;1.45;;;7.50;99.90;;;;;;4985660;28;20093;-84
2022/12/26 11:25:16;;;;;;;14.50;1.60;;;6.70;99.90;;;;;;4985508;28;20100;-77
2022/12/26 11:27:48;;;;;;;15.85;1.67;;;6.70;99.90;;;;;;4987831;28;20488;-85
2022/12/26 11:30:15;;;;;;;13.70;1.67;;;6.70;99.90;;;;;;4987895;28;20051;-76
2022/12/26 11:32:43;;;;;;;8.95;1.15;;;6.70;99.90;;;;;;4986252;28;20166;-77
2022/12/26 11:35:25;;;;;;;10.82;1.30;;;6.70;99.90;;;;;;4987376;28;20519;-82
2022/12/26 11:37:56;;;;;;;14.30;2.20;;;6.70;99.90;;;;;;4987474;28;20053;-77
2022/12/26 11:40:36;;;;;;;7.30;1.00;;;6.90;99.90;;;;;;4987562;28;20451;-74
2022/12/26 11:43:05;;;;;;;12.45;1.90;;;6.70;99.90;;;;;;4986934;28;20046;-77
2022/12/26 11:45:35;;;;;;;15.80;1.42;;;6.70;99.90;;;;;;4987137;28;20058;-76
2022/12/26 11:48:01;;;;;;;15.55;2.20;;;6.70;99.90;;;;;;4990687;28;20050;-78
2022/12/26 11:50:29;;;;;;;10.27;1.48;;;6.70;99.90;;;;;;4990956;28;20051;-79
2022/12/26 11:52:55;;;;;;;8.85;1.80;;;6.70;99.90;;;;;;4990240;28;20046;-80
2022/12/26 11:55:26;;;;;;;12.48;1.75;;;6.70;99.90;;;;;;4990064;28;20079;-76
2022/12/26 11:58:00;;;;;;;10.93;2.03;;;6.70;99.90;;;;;;4990690;28;20596;-78
2022/12/26 12:00:27;;;;;;;12.18;1.20;;;6.70;99.90;;;;;;4990117;28;20054;-79
2022/12/26 12:02:53;;;;;;;9.25;1.30;;;6.70;99.90;;;;;;4991392;28;20042;-75
2022/12/26 12:05:34;;;;;;;12.82;1.90;;;6.60;99.90;;;;;;4989372;28;20371;-85
2022/12/26 12:08:08;;;;;;;12.25;2.33;;;6.70;99.90;;;;;;4989707;28;20432;-84
2022/12/26 12:11:00;;;;;;;15.85;2.10;;;6.70;99.90;;;;;;4990522;28;20057;-90
2022/12/26 12:13:48;;;;;;;11.98;2.08;;;6.70;99.90;;;;;;4989377;28;20444;-86
2022/12/26 12:16:22;;;;;;;19.25;3.40;;;6.70;99.90;;;;;;4990467;28;20053;-85
2022/12/26 12:19:09;;;;;;;15.35;1.98;;;6.70;99.90;;;;;;4990463;28;20049;-90
2022/12/26 12:22:10;;;;;;;11.98;1.67;;;6.70;99.90;;;;;;4991028;28;20092;-76
2022/12/26 12:25:06;;;;;;;16.48;1.92;;;6.70;99.90;;;;;;4990164;28;20050;-91
2022/12/26 12:27:40;;;;;;;16.77;2.47;;;6.60;99.90;;;;;;4990691;28;20401;-83
2022/12/26 12:30:28;;;;;;;20.33;1.90;;;6.80;99.90;;;;;;4973576;28;20042;-83
2022/12/26 12:33:24;;;;;;;20.70;1.92;;;6.70;99.90;;;;;;4990574;28;20058;-77
2022/12/26 12:36:10;;;;;;;18.77;2.00;;;6.70;99.90;;;;;;4990196;28;20086;-82
2022/12/26 12:38:54;;;;;;;17.58;2.33;;;6.60;99.90;;;;;;4990912;28;20050;-85
2022/12/26 12:41:39;;;;;;;16.38;2.03;;;6.60;99.90;;;;;;4990760;28;20061;-82
2022/12/26 12:44:24;;;;;;;12.60;3.05;;;6.60;99.90;;;;;;4989450;28;20043;-75
2022/12/26 12:46:53;;;;;;;15.55;2.13;;;6.50;99.90;;;;;;4971213;28;20050;-79
2022/12/26 12:49:33;;;;;;;21.65;2.90;;;6.60;99.90;;;;;;4978183;28;20099;-76
2022/12/26 12:52:11;;;;;;;18.92;2.08;;;6.70;99.90;;;;;;4990125;28;20104;-85
2022/12/26 12:54:39;;;;;;;15.55;1.98;;;6.70;99.90;;;;;;4990499;28;20863;-86
2022/12/26 12:57:11;;;;;;;19.23;2.38;;;6.80;99.90;;;;;;4988394;28;20093;-76
2022/12/26 12:59:46;;;;;;;14.38;2.33;;;6.80;99.90;;;;;;4990325;28;20126;-81
2022/12/26 13:02:34;;;;;;;15.50;2.53;;;6.90;99.90;;;;;;4990066;28;20050;-88
2022/12/26 13:05:22;;;;;;;13.43;1.70;;;6.90;99.90;;;;;;5020540;27;20549;-73
2022/12/26 13:07:54;;;;;;;17.00;2.97;;;6.90;99.90;;;;;;5045131;28;20083;-84
2022/12/26 13:10:32;;;;;;;14.32;2.38;;;7.60;99.90;;;;;;5023940;28;20057;-81
2022/12/26 13:13:03;;;;;;;15.40;2.70;;;6.80;99.90;;;;;;5048755;28;20145;-86
2022/12/26 13:15:35;;;;;;;17.40;2.40;;;7.00;99.90;;;;;;5049851;28;20488;-75
2022/12/26 13:18:21;;;;;;;21.73;1.98;;;7.10;99.90;;;;;;5049347;28;20236;-79
2022/12/26 13:20:52;;;;;;;16.63;2.38;;;7.20;99.90;;;;;;5047716;28;20179;-76
2022/12/26 13:26:41;;;;;;;16.85;2.55;;;7.30;99.90;;;;;;5049626;28;20052;-76
2022/12/26 13:29:30;;;;;;;13.70;2.08;;;7.40;99.90;;;;;;5050030;28;20191;-93
2022/12/26 13:32:00;;;;;;;9.18;1.67;;;7.50;99.90;;;;;;5042762;28;20055;-87
2022/12/26 13:34:26;;;;;;;17.48;3.53;;;7.40;99.90;;;;;;5049540;28;20461;-81
2022/12/26 13:36:54;;;;;;;14.63;2.28;;;7.20;99.90;;;;;;5032841;28;20087;-90
2022/12/26 13:39:22;;;;;;;14.70;1.80;;;7.20;99.90;;;;;;5049364;28;20397;-76
2022/12/26 13:44:37;;;;;;;15.50;2.42;;;7.00;99.90;;;;;;5032651;28;20374;-88
2022/12/26 13:47:03;;;;;;;15.85;2.95;;;6.90;99.90;;;;;;5007599;28;20054;-80
2022/12/26 13:49:37;;;;;;;11.05;2.05;;;6.90;99.90;;;;;;5009166;28;20049;-85
2022/12/26 13:52:13;;;;;;;18.48;2.50;;;6.80;99.90;;;;;;5009003;28;20049;-84
2022/12/26 13:54:50;;;;;;;13.70;2.08;;;6.70;99.90;;;;;;5008708;28;20054;-83
2022/12/26 13:57:40;;;;;;;17.38;2.88;;;6.70;99.90;;;;;;5008791;28;20064;-91
2022/12/26 14:00:08;;;;;;;15.90;2.45;;;6.60;99.90;;;;;;5009038;28;20125;-84
2022/12/26 14:03:01;;;;;;;16.60;1.70;;;6.50;99.90;;;;;;5007372;28;20481;-82
2022/12/26 14:05:33;;;;;;;16.80;2.08;;;6.50;99.90;;;;;;5006764;28;20568;-80
2022/12/26 14:08:30;;;;;;;16.50;2.72;;;6.60;99.90;;;;;;4987199;28;20863;-79
2022/12/26 14:11:20;;;;;;;20.02;1.70;;;6.60;99.90;;;;;;5026721;28;20053;-76
2022/12/26 14:14:11;;;;;;;14.23;2.05;;;6.50;99.90;;;;;;5028207;28;20080;-76
2022/12/26 14:16:46;;;;;;;18.60;2.75;;;6.50;99.90;;;;;;5028594;28;20441;-87
2022/12/26 14:19:23;;;;;;;12.48;1.60;;;6.50;99.90;;;;;;5028229;28;20053;-84
2022/12/26 14:22:12;;;;;;;15.00;2.40;;;6.50;99.90;;;;;;5044149;28;20103;-79
2022/12/26 14:25:04;;;;;;;16.90;2.20;;;6.50;99.90;;;;;;5006322;28;20088;-82
2022/12/26 14:27:43;;;;;;;16.38;2.22;;;6.50;99.90;;;;;;5008595;28;20061;-80
2022/12/26 14:30:27;;;;;;;21.25;2.65;;;6.40;99.90;;;;;;5008504;28;20144;-79
2022/12/26 14:33:52;;;;;;;17.63;2.22;;;6.30;99.90;;;;;;5008884;28;20049;-79
2022/12/26 14:36:59;;;;;;;16.40;2.15;;;6.20;99.90;;;;;;4934600;29;20062;-77
2022/12/26 14:39:45;;;;;;;18.98;2.35;;;6.10;99.90;;;;;;4949444;29;20051;-81
2022/12/26 14:45:12;;;;;;;18.38;2.67;;;5.90;99.90;;;;;;4949170;29;20057;-73
2022/12/26 14:47:47;;;;;;;15.43;2.25;;;5.90;99.90;;;;;;4981437;28;20053;-77
2022/12/26 14:50:31;;;;;;;22.02;2.53;;;5.80;99.90;;;;;;4991931;28;20061;-75
2022/12/26 14:53:20;;;;;;;18.30;2.13;;;5.70;99.90;;;;;;5013872;28;20062;-75
2022/12/26 14:55:49;;;;;;;15.40;2.05;;;5.70;99.90;;;;;;5008381;28;20057;-77
2022/12/26 14:58:32;;;;;;;15.82;1.95;;;5.70;99.90;;;;;;5008437;28;20050;-87
2022/12/26 15:01:14;;;;;;;17.05;2.42;;;5.60;99.90;;;;;;5014932;28;20056;-75
2022/12/26 15:03:45;;;;;;;18.70;2.67;;;5.60;99.90;;;;;;5019615;28;20500;-76
2022/12/26 15:06:19;;;;;;;15.63;2.85;;;5.50;99.90;;;;;;4977299;28;20042;-76
2022/12/26 15:09:22;;;;;;;10.88;1.92;;;6.00;99.90;;;;;;4965869;28;20444;-75
2022/12/26 15:12:00;;;;;;;12.88;2.17;;;5.40;99.90;;;;;;4976496;28;20481;-81
2022/12/26 15:14:31;;;;;;;15.50;2.15;;;5.30;99.90;;;;;;4988018;28;20042;-85
2022/12/26 15:17:21;;;;;;;13.80;2.30;;;5.30;99.90;;;;;;4988149;28;20069;-80
2022/12/26 15:20:24;;;;;;;15.73;2.50;;;5.40;99.90;;;;;;5019236;28;20039;-75
2022/12/26 15:23:01;;;;;;;11.57;2.10;;;5.20;99.90;;;;;;5065066;28;20080;-86
2022/12/26 15:26:09;;;;;;;18.83;3.03;;;5.20;99.90;;;;;;5041674;28;20069;-83
2022/12/26 15:28:46;;;;;;;14.20;1.98;;;5.10;99.90;;;;;;5034225;28;20142;-87
2022/12/26 15:32:04;;;;;;;15.00;2.25;;;5.10;99.90;;;;;;5033110;28;20095;-87